Time,TemperatureF,DewpointF,PressureIn,WindDirection,WindDirectionDegrees,WindSpeedMPH,WindSpeedGustMPH,Humidity,HourlyPrecipIn,Conditions,Clouds,dailyrainin,SoftwareType,DateUTC
2013-05-19 00:01:00,65.0,33.0,29.88,West,270,3.0,4.0,30,0.00,,,-99.99,,2013-05-19 07:01:00,
2013-05-19 00:11:00,66.0,33.0,29.87,West,280,4.0,7.0,29,0.00,,,-99.99,,2013-05-19 07:11:00,
2013-05-19 00:21:00,65.0,31.0,29.87,West,280,3.0,5.0,28,0.00,,,-99.99,,2013-05-19 07:21:00,
2013-05-19 00:32:00,65.0,31.0,29.87,West,280,3.0,5.0,28,0.00,,,-99.99,,2013-05-19 07:32:00,
2013-05-19 00:41:00,66.0,31.0,29.87,North,0,0.0,9.0,27,0.00,,,-99.99,,2013-05-19 07:41:00,
2013-05-19 00:52:00,66.0,31.0,29.86,North,-999,0.0,0.0,27,0.00,,,-99.99,,2013-05-19 07:52:00,
2013-05-19 01:01:00,66.0,31.0,29.86,North,-999,0.0,0.0,27,0.00,,,-99.99,,2013-05-19 08:01:00,
2013-05-19 01:12:00,66.0,32.0,29.87,North,0,0.0,3.0,28,0.00,,,-99.99,,2013-05-19 08:12:00,
2013-05-19 01:21:00,66.0,31.0,29.87,North,-999,0.0,0.0,27,0.00,,,-99.99,,2013-05-19 08:21:00,
2013-05-19 01:32:00,66.0,31.0,29.87,North,-999,0.0,0.0,27,0.00,,,-99.99,,2013-05-19 08:32:00,
2013-05-19 01:41:00,66.0,31.0,29.86,North,0,0.0,3.0,27,0.00,,,-99.99,,2013-05-19 08:41:00,
2013-05-19 01:52:00,66.0,31.0,29.85,West,280,2.0,2.0,27,0.00,,,-99.99,,2013-05-19 08:52:00,
2013-05-19 02:02:00,66.0,31.0,29.85,West,280,2.0,2.0,27,0.00,,,-99.99,,2013-05-19 09:02:00,
2013-05-19 02:11:00,65.0,30.0,29.85,North,0,0.0,4.0,27,0.00,,,-99.99,,2013-05-19 09:11:00,
2013-05-19 02:21:00,65.0,30.0,29.85,North,-999,0.0,0.0,27,0.00,,,-99.99,,2013-05-19 09:21:00,
2013-05-19 02:32:00,65.0,30.0,29.85,North,-999,0.0,0.0,27,0.00,,,-99.99,,2013-05-19 09:32:00,
2013-05-19 02:42:00,65.0,31.0,29.84,West,270,2.0,7.0,28,0.00,,,-99.99,,2013-05-19 09:42:00,
2013-05-19 02:53:00,64.0,31.0,29.83,West,260,2.0,3.0,29,0.00,,,-99.99,,2013-05-19 09:53:00,
2013-05-19 03:02:00,64.0,31.0,29.83,West,260,2.0,3.0,29,0.00,,,-99.99,,2013-05-19 10:02:00,
2013-05-19 03:12:00,63.0,32.0,29.83,West,260,2.0,6.0,31,0.00,,,-99.99,,2013-05-19 10:12:00,
2013-05-19 03:22:00,63.0,33.0,29.83,West,260,3.0,4.0,32,0.00,,,-99.99,,2013-05-19 10:22:00,
2013-05-19 03:32:00,63.0,33.0,29.83,West,260,3.0,4.0,32,0.00,,,-99.99,,2013-05-19 10:32:00,
2013-05-19 03:42:00,63.0,32.0,29.83,North,0,0.0,4.0,31,0.00,,,-99.99,,2013-05-19 10:42:00,
2013-05-19 03:52:00,63.0,33.0,29.83,North,-999,0.0,0.0,32,0.00,,,-99.99,,2013-05-19 10:52:00,
2013-05-19 04:02:00,63.0,33.0,29.83,North,-999,0.0,0.0,32,0.00,,,-99.99,,2013-05-19 11:02:00,
2013-05-19 04:11:00,63.0,33.0,29.82,North,0,0.0,4.0,32,0.00,,,-99.99,,2013-05-19 11:11:00,
2013-05-19 04:21:00,63.0,33.0,29.83,WNW,290,1.0,2.0,33,0.00,,,-99.99,,2013-05-19 11:21:00,
2013-05-19 04:32:00,63.0,33.0,29.83,WNW,290,1.0,2.0,33,0.00,,,-99.99,,2013-05-19 11:32:00,
2013-05-19 04:42:00,63.0,33.0,29.82,WNW,290,2.0,4.0,33,0.00,,,-99.99,,2013-05-19 11:42:00,
2013-05-19 04:52:00,63.0,33.0,29.81,WNW,290,1.0,2.0,33,0.00,,,-99.99,,2013-05-19 11:52:00,
2013-05-19 05:01:00,63.0,33.0,29.81,WNW,290,1.0,2.0,33,0.00,,,-99.99,,2013-05-19 12:01:00,
2013-05-19 05:11:00,62.0,33.0,29.81,WNW,300,1.0,4.0,33,0.00,,,-99.99,,2013-05-19 12:11:00,
2013-05-19 05:21:00,62.0,33.0,29.81,WNW,300,1.0,3.0,34,0.00,,,-99.99,,2013-05-19 12:21:00,
2013-05-19 05:31:00,62.0,33.0,29.81,WNW,300,1.0,3.0,34,0.00,,,-99.99,,2013-05-19 12:31:00,
2013-05-19 05:41:00,62.0,34.0,29.80,North,0,0.0,4.0,35,0.00,,,-99.99,,2013-05-19 12:41:00,
2013-05-19 05:52:00,62.0,35.0,29.80,North,-999,0.0,0.0,36,0.00,,,-99.99,,2013-05-19 12:52:00,
2013-05-19 06:01:00,62.0,35.0,29.80,North,-999,0.0,0.0,36,0.00,,,-99.99,,2013-05-19 13:01:00,
2013-05-19 06:11:00,62.0,35.0,29.80,North,0,0.0,7.0,37,0.00,,,-99.99,,2013-05-19 13:11:00,
2013-05-19 06:21:00,61.0,34.0,29.80,North,0,0.0,1.0,36,0.00,,,-99.99,,2013-05-19 13:21:00,
2013-05-19 06:31:00,61.0,34.0,29.80,North,0,0.0,1.0,36,0.00,,,-99.99,,2013-05-19 13:31:00,
2013-05-19 06:42:00,61.0,33.0,29.81,North,0,0.0,3.0,35,0.00,,,-99.99,,2013-05-19 13:42:00,
2013-05-19 06:52:00,62.0,33.0,29.81,North,-999,0.0,0.0,34,0.00,,,-99.99,,2013-05-19 13:52:00,
2013-05-19 07:02:00,62.0,33.0,29.81,North,-999,0.0,0.0,34,0.00,,,-99.99,,2013-05-19 14:02:00,
2013-05-19 07:11:00,62.0,34.0,29.81,North,0,0.0,1.0,35,0.00,,,-99.99,,2013-05-19 14:11:00,
2013-05-19 07:21:00,62.0,33.0,29.81,North,-999,0.0,0.0,33,0.00,,,-99.99,,2013-05-19 14:21:00,
2013-05-19 07:31:00,62.0,33.0,29.81,North,-999,0.0,0.0,33,0.00,,,-99.99,,2013-05-19 14:31:00,
2013-05-19 07:41:00,63.0,33.0,29.81,North,0,0.0,1.0,33,0.00,,,-99.99,,2013-05-19 14:41:00,
2013-05-19 07:52:00,63.0,35.0,29.81,North,-999,0.0,0.0,35,0.00,,,-99.99,,2013-05-19 14:52:00,
2013-05-19 08:00:00,64.0,36.0,29.81,North,-999,0.0,0.0,35,0.00,,,-99.99,,2013-05-19 15:00:00,
2013-05-19 08:01:00,63.0,35.0,29.81,North,-999,0.0,0.0,35,0.00,,,-99.99,,2013-05-19 15:01:00,
2013-05-19 08:11:00,64.0,36.0,29.81,North,0,0.0,1.0,35,0.00,,,-99.99,,2013-05-19 15:11:00,
2013-05-19 08:21:00,64.0,36.0,29.81,North,-999,0.0,0.0,35,0.00,,,-99.99,,2013-05-19 15:21:00,
2013-05-19 08:32:00,64.0,36.0,29.81,North,-999,0.0,0.0,35,0.00,,,-99.99,,2013-05-19 15:32:00,
2013-05-19 08:43:00,64.0,36.0,29.81,North,-999,0.0,0.0,35,0.00,,,-99.99,,2013-05-19 15:43:00,
2013-05-19 08:53:00,64.0,36.0,29.81,North,-999,0.0,0.0,35,0.00,,,-99.99,,2013-05-19 15:53:00,